Time;durP1;ratioP1;P1;durP2;ratioP2;P2;SDS_P1;SDS_P2;PMS_P1;PMS_P2;Temp;Humidity;BMP_temperature;BMP_pressure;BME280_temperature;BME280_humidity;BME280_pressure;Samples;Min_cycle;Max_cycle;Signal;HPM_P1;HPM_P2
2024/02/10 00:00:06;;;;;;;12.93;4.40;;;;;;;9.81;100.00;98496.38;6085417;19;20018;-73
2024/02/10 00:02:11;;;;;;;8.27;3.90;;;;;;;9.78;100.00;98495.78;6085890;19;20014;-72
2024/02/10 00:04:20;;;;;;;13.98;4.40;;;;;;;9.76;100.00;98489.81;6087702;19;20361;-71
2024/02/10 00:06:26;;;;;;;7.63;4.03;;;;;;;9.77;100.00;98496.72;6077397;19;20006;-72
2024/02/10 00:08:31;;;;;;;8.18;3.95;;;;;;;9.82;100.00;98502.44;6085014;19;20022;-72
2024/02/10 00:10:36;;;;;;;5.95;3.60;;;;;;;9.81;100.00;98498.16;6087910;19;20067;-71
2024/02/10 00:12:42;;;;;;;11.93;4.40;;;;;;;9.78;100.00;98503.66;6086402;19;20011;-73
2024/02/10 00:14:47;;;;;;;10.45;3.88;;;;;;;9.75;100.00;98494.22;6082000;19;20163;-73
2024/02/10 00:16:53;;;;;;;8.23;3.70;;;;;;;9.76;100.00;98490.63;6084897;19;20010;-72
2024/02/10 00:19:06;;;;;;;7.82;3.63;;;;;;;9.77;100.00;98494.09;6085909;19;20034;-72
2024/02/10 00:21:14;;;;;;;18.17;5.60;;;;;;;9.73;100.00;98495.28;6081435;19;20493;-72
2024/02/10 00:23:18;;;;;;;8.23;3.85;;;;;;;9.78;100.00;98501.03;6086132;19;20301;-73
2024/02/10 00:25:23;;;;;;;12.68;4.20;;;;;;;9.78;100.00;98496.59;6085256;19;20471;-73
2024/02/10 00:27:27;;;;;;;12.70;4.43;;;;;;;9.79;100.00;98494.81;6087120;19;20010;-73
2024/02/10 00:29:33;;;;;;;7.78;3.63;;;;;;;9.77;100.00;98491.47;6086024;19;20010;-72
2024/02/10 00:31:44;;;;;;;6.45;3.88;;;;;;;9.70;100.00;98493.72;6085094;19;20010;-72
2024/02/10 00:33:50;;;;;;;8.68;3.38;;;;;;;9.71;100.00;98492.75;6085918;19;20039;-73
2024/02/10 00:35:55;;;;;;;5.93;3.47;;;;;;;9.76;100.00;98495.88;6085104;19;20105;-72
2024/02/10 00:38:00;;;;;;;10.20;4.35;;;;;;;9.75;100.00;98488.97;6081824;19;20006;-73
2024/02/10 00:40:06;;;;;;;8.10;3.90;;;;;;;9.70;100.00;98488.47;6080919;19;20035;-72
2024/02/10 00:42:13;;;;;;;13.45;4.45;;;;;;;9.68;100.00;98488.59;6083659;19;20459;-72
2024/02/10 00:44:20;;;;;;;6.93;3.38;;;;;;;9.71;100.00;98487.50;6084144;19;20007;-72
2024/02/10 00:46:28;;;;;;;10.32;3.55;;;;;;;9.77;100.00;98488.84;6074201;19;20002;-71
2024/02/10 00:48:33;;;;;;;6.85;3.60;;;;;;;9.89;100.00;98490.56;6083625;19;20143;-72
2024/02/10 00:50:39;;;;;;;10.13;3.45;;;;;;;9.93;100.00;98491.19;6083548;19;20014;-72
2024/02/10 00:52:49;;;;;;;6.10;3.00;;;;;;;9.91;100.00;98487.81;6084611;19;20039;-72
2024/02/10 00:54:59;;;;;;;5.90;3.40;;;;;;;9.95;100.00;98487.47;6085443;19;20048;-72
2024/02/10 00:57:10;;;;;;;8.10;3.38;;;;;;;9.92;100.00;98490.31;6086110;19;20086;-72
2024/02/10 00:59:17;;;;;;;6.63;2.50;;;;;;;9.91;100.00;98487.81;6081891;19;20083;-71
2024/02/10 01:01:20;;;;;;;5.40;2.83;;;;;;;9.86;100.00;98488.16;6084873;19;20014;-73
2024/02/10 01:03:26;;;;;;;9.57;3.25;;;;;;;9.91;100.00;98487.81;6085157;19;20590;-73
2024/02/10 01:05:31;;;;;;;6.28;2.60;;;;;;;9.89;100.00;98487.94;6085486;19;20623;-72
2024/02/10 01:07:34;;;;;;;9.10;3.25;;;;;;;9.89;100.00;98491.38;6084429;19;20018;-74
2024/02/10 01:09:40;;;;;;;6.78;3.35;;;;;;;9.88;100.00;98486.28;6083606;19;20006;-74
2024/02/10 01:11:48;;;;;;;9.73;3.00;;;;;;;9.90;100.00;98492.25;6083363;19;20043;-71
2024/02/10 01:13:53;;;;;;;4.00;2.60;;;;;;;9.89;100.00;98485.31;6086548;19;20337;-73
2024/02/10 01:15:58;;;;;;;4.82;2.55;;;;;;;9.86;100.00;98501.28;6085761;19;20576;-71
2024/02/10 01:18:04;;;;;;;5.57;3.08;;;;;;;9.87;100.00;98502.94;6086198;19;20327;-73
2024/02/10 01:20:17;;;;;;;7.75;3.38;;;;;;;9.80;100.00;98494.72;6085166;19;20003;-71
2024/02/10 01:22:25;;;;;;;8.55;3.17;;;;;;;9.85;100.00;98504.88;6085482;19;20011;-73
2024/02/10 01:24:31;;;;;;;9.25;3.13;;;;;;;9.81;100.00;98499.00;6086068;19;20042;-73
2024/02/10 01:26:35;;;;;;;7.57;3.80;;;;;;;9.80;100.00;98496.50;6084570;19;20029;-71
2024/02/10 01:28:44;;;;;;;7.47;3.50;;;;;;;9.76;100.00;98489.81;6083513;19;20759;-74
2024/02/10 01:30:51;;;;;;;8.85;3.67;;;;;;;9.70;100.00;98501.59;6083862;19;20027;-71
2024/02/10 01:32:58;;;;;;;6.25;2.97;;;;;;;9.67;100.00;98497.41;6084922;19;20002;-72
2024/02/10 01:35:04;;;;;;;6.82;3.15;;;;;;;9.66;100.00;98500.13;6083878;19;20022;-72
2024/02/10 01:37:10;;;;;;;7.38;2.90;;;;;;;9.57;100.00;98501.66;6085194;19;20460;-73
2024/02/10 01:39:15;;;;;;;16.27;3.72;;;;;;;9.56;100.00;98502.63;6084211;19;20574;-71
2024/02/10 01:41:20;;;;;;;5.65;2.92;;;;;;;9.56;100.00;98507.88;6083966;19;20011;-71
2024/02/10 01:43:22;;;;;;;5.35;2.95;;;;;;;9.58;100.00;98495.47;6084962;19;20002;-71
2024/02/10 01:45:30;;;;;;;14.15;3.70;;;;;;;9.51;100.00;98496.88;6084083;19;20010;-72
2024/02/10 01:47:36;;;;;;;5.05;2.63;;;;;;;9.45;100.00;98498.16;6083212;19;20010;-71
2024/02/10 01:49:45;;;;;;;8.80;3.42;;;;;;;9.46;100.00;98499.00;6085674;19;20352;-74
2024/02/10 01:51:48;;;;;;;7.65;3.50;;;;;;;9.43;100.00;98501.84;6082954;19;20006;-73
2024/02/10 01:53:54;;;;;;;6.45;2.78;;;;;;;9.40;100.00;98504.66;6083840;19;20425;-73
2024/02/10 01:55:59;;;;;;;7.93;2.90;;;;;;;9.41;100.00;98506.38;6088283;19;20476;-72
2024/02/10 01:58:10;;;;;;;8.80;3.25;;;;;;;9.47;100.00;98505.06;6085510;19;20018;-71
2024/02/10 02:00:17;;;;;;;6.93;3.13;;;;;;;9.41;100.00;98506.38;6086836;19;20391;-71
2024/02/10 02:02:25;;;;;;;6.18;2.83;;;;;;;9.43;100.00;98507.09;6087703;19;20471;-71
2024/02/10 02:04:35;;;;;;;8.65;3.33;;;;;;;9.47;100.00;98503.28;6085454;19;20010;-72
2024/02/10 02:06:40;;;;;;;8.88;3.67;;;;;;;9.46;100.00;98514.72;6085977;19;20007;-72
2024/02/10 02:08:46;;;;;;;6.78;3.20;;;;;;;9.41;100.00;98512.44;6086277;19;20022;-71
2024/02/10 02:10:52;;;;;;;8.15;3.05;;;;;;;9.45;100.00;98518.28;6087225;19;20040;-72
2024/02/10 02:12:54;;;;;;;9.57;3.28;;;;;;;9.46;100.00;98519.97;6087157;19;20006;-72
2024/02/10 02:15:00;;;;;;;7.43;3.15;;;;;;;9.46;100.00;98519.97;6085528;19;20003;-71
2024/02/10 02:17:09;;;;;;;6.22;3.15;;;;;;;9.43;100.00;98521.03;6087834;19;20013;-71
2024/02/10 02:19:17;;;;;;;8.35;3.38;;;;;;;9.49;100.00;98521.53;6087202;19;20354;-72
2024/02/10 02:21:22;;;;;;;10.32;3.80;;;;;;;9.46;100.00;98517.34;6085179;19;20352;-73
2024/02/10 02:23:30;;;;;;;9.32;3.45;;;;;;;9.51;100.00;98517.84;6084605;19;20013;-73
2024/02/10 02:25:34;;;;;;;7.75;3.40;;;;;;;9.45;100.00;98518.28;6089462;19;20498;-73
2024/02/10 02:27:40;;;;;;;6.22;3.28;;;;;;;9.43;100.00;98514.97;6085364;19;20037;-73
2024/02/10 02:29:45;;;;;;;9.60;3.83;;;;;;;9.40;100.00;98516.00;6086327;19;20664;-73
2024/02/10 02:31:53;;;;;;;8.43;3.70;;;;;;;9.49;100.00;98509.25;6083526;19;20613;-74
2024/02/10 02:34:02;;;;;;;7.95;2.80;;;;;;;9.43;100.00;98510.53;6084388;19;20021;-72
2024/02/10 02:36:08;;;;;;;6.43;3.13;;;;;;;9.47;100.00;98511.16;6083018;19;20002;-73
2024/02/10 02:38:16;;;;;;;7.68;3.03;;;;;;;9.43;100.00;98515.78;6083224;19;20475;-72
2024/02/10 02:40:25;;;;;;;6.63;3.55;;;;;;;9.39;100.00;98508.25;6085978;19;20034;-71
2024/02/10 02:42:28;;;;;;;6.55;3.08;;;;;;;9.42;100.00;98508.84;6085462;19;20010;-73
2024/02/10 02:44:33;;;;;;;9.85;3.38;;;;;;;9.41;100.00;98506.38;6085053;19;20014;-73
2024/02/10 02:46:38;;;;;;;11.40;3.88;;;;;;;9.36;100.00;98509.31;6081899;19;20483;-72
2024/02/10 02:48:44;;;;;;;7.30;2.95;;;;;;;9.32;100.00;98514.88;6084289;19;20018;-71
2024/02/10 02:50:49;;;;;;;7.43;3.58;;;;;;;9.31;100.00;98502.72;6084746;19;20070;-71
2024/02/10 02:52:53;;;;;;;6.82;3.08;;;;;;;9.30;100.00;98495.84;6078831;19;20010;-70
2024/02/10 02:54:59;;;;;;;13.10;3.65;;;;;;;9.26;100.00;98503.06;6079465;19;20015;-70
2024/02/10 02:57:07;;;;;;;7.03;3.20;;;;;;;9.33;100.00;98493.81;6079905;19;20489;-70
2024/02/10 02:59:12;;;;;;;7.80;3.13;;;;;;;9.36;100.00;98493.59;6083576;19;20085;-70
2024/02/10 03:01:15;;;;;;;8.18;3.10;;;;;;;9.32;100.00;98497.41;6081764;19;20035;-70
2024/02/10 03:03:20;;;;;;;13.18;4.15;;;;;;;9.37;100.00;98500.53;6082923;19;20011;-71
2024/02/10 03:05:23;;;;;;;9.07;3.63;;;;;;;9.36;100.00;98498.81;6083466;19;20437;-68
2024/02/10 03:07:30;;;;;;;6.93;3.15;;;;;;;9.37;100.00;98504.91;6083178;19;20332;-68
2024/02/10 03:09:35;;;;;;;6.45;3.35;;;;;;;9.32;100.00;98491.28;6084330;19;20015;-69
2024/02/10 03:11:40;;;;;;;13.57;3.38;;;;;;;9.35;100.00;98486.69;6077613;19;20530;-70
2024/02/10 03:13:49;;;;;;;8.75;3.63;;;;;;;9.33;100.00;98490.38;6080739;19;20397;-71
2024/02/10 03:15:54;;;;;;;6.78;3.17;;;;;;;9.35;100.00;98485.84;6082354;19;20046;-71
2024/02/10 03:18:03;;;;;;;7.43;2.92;;;;;;;9.30;100.00;98486.19;6082153;19;20025;-70
2024/02/10 03:20:10;;;;;;;6.97;3.00;;;;;;;9.30;100.00;98485.34;6081526;19;20435;-71
2024/02/10 03:22:13;;;;;;;7.50;3.33;;;;;;;9.28;100.00;98495.94;6083189;19;20527;-68
2024/02/10 03:24:18;;;;;;;7.50;3.22;;;;;;;9.36;100.00;98487.50;6082651;19;20011;-69
2024/02/10 03:26:24;;;;;;;12.10;3.55;;;;;;;9.28;100.00;98495.94;6084913;19;20006;-70
2024/02/10 03:28:33;;;;;;;10.50;3.28;;;;;;;9.27;100.00;98491.66;6083269;19;20330;-69
2024/02/10 03:30:39;;;;;;;7.88;3.50;;;;;;;9.29;100.00;98491.53;6085775;19;20006;-69
2024/02/10 03:32:45;;;;;;;9.57;3.88;;;;;;;9.28;100.00;98495.94;6084476;19;20027;-70
2024/02/10 03:34:47;;;;;;;7.25;3.72;;;;;;;9.22;100.00;98497.22;6082747;19;20034;-69
2024/02/10 03:36:52;;;;;;;8.63;3.75;;;;;;;9.22;100.00;98496.38;6082461;19;20365;-69
2024/02/10 03:39:02;;;;;;;5.72;3.13;;;;;;;9.28;100.00;98490.69;6083045;19;20006;-70
2024/02/10 03:41:10;;;;;;;5.97;2.67;;;;;;;9.25;100.00;98492.72;6085043;19;20014;-69
2024/02/10 03:43:17;;;;;;;7.85;4.10;;;;;;;9.26;100.00;98479.47;6084518;19;20070;-69
2024/02/10 03:45:22;;;;;;;8.20;3.87;;;;;;;9.24;100.00;98494.47;5937659;19;2857737;-68
2024/02/10 03:47:32;;;;;;;9.68;3.88;;;;;;;9.22;100.00;98489.34;6083884;19;20014;-68
2024/02/10 03:49:37;;;;;;;6.85;3.15;;;;;;;9.25;100.00;98487.47;6085708;19;20039;-69
2024/02/10 03:51:42;;;;;;;10.55;3.53;;;;;;;9.23;100.00;98491.00;6082613;19;20480;-69
2024/02/10 03:53:47;;;;;;;11.48;3.92;;;;;;;9.25;100.00;98490.91;6082377;19;20010;-70
2024/02/10 03:55:53;;;;;;;7.43;3.40;;;;;;;9.20;100.00;98499.09;6081300;19;20264;-71
2024/02/10 03:57:59;;;;;;;11.93;3.58;;;;;;;9.23;100.00;98498.88;6081780;19;20306;-70
2024/02/10 04:00:08;;;;;;;14.82;4.47;;;;;;;9.32;100.00;98497.41;6081008;19;20014;-70
2024/02/10 04:02:18;;;;;;;8.50;3.03;;;;;;;9.32;100.00;98497.41;6080779;19;20003;-70
2024/02/10 04:04:28;;;;;;;8.90;3.35;;;;;;;9.32;100.00;98499.16;6085115;19;20016;-70
2024/02/10 04:06:33;;;;;;;9.32;3.58;;;;;;;9.36;100.00;98496.22;6083641;19;20006;-71
2024/02/10 04:08:38;;;;;;;12.05;3.55;;;;;;;9.32;100.00;98497.41;6080385;19;20070;-69
2024/02/10 04:10:44;;;;;;;9.10;3.35;;;;;;;9.30;100.00;98496.66;6081507;19;20007;-70
2024/02/10 04:12:49;;;;;;;4.75;2.80;;;;;;;9.27;100.00;98494.28;6081545;19;20818;-70
2024/02/10 04:14:58;;;;;;;7.25;3.28;;;;;;;9.29;100.00;98504.63;6083172;19;20006;-70
2024/02/10 04:17:04;;;;;;;7.47;3.30;;;;;;;9.28;100.00;98493.31;6080969;19;20039;-69
2024/02/10 04:19:09;;;;;;;7.53;3.60;;;;;;;9.28;100.00;98502.97;6083793;19;20039;-71
2024/02/10 04:21:18;;;;;;;7.95;3.58;;;;;;;9.30;100.00;98506.31;6082532;19;20176;-72
2024/02/10 04:23:28;;;;;;;5.40;2.90;;;;;;;9.29;100.00;98504.63;6080665;19;20011;-69
2024/02/10 04:25:33;;;;;;;7.72;2.97;;;;;;;9.31;100.00;98510.59;6083366;19;19999;-71
2024/02/10 04:27:38;;;;;;;9.25;3.50;;;;;;;9.31;100.00;98507.97;6078156;19;20018;-71
2024/02/10 04:29:45;;;;;;;12.43;3.58;;;;;;;9.31;100.00;98508.81;6079846;19;20661;-71
2024/02/10 04:31:58;;;;;;;6.03;3.35;;;;;;;9.32;100.00;98509.63;6083448;19;20014;-70
2024/02/10 04:34:05;;;;;;;6.25;3.17;;;;;;;9.31;100.00;98507.97;6082724;19;20515;-71
2024/02/10 04:36:12;;;;;;;9.23;3.08;;;;;;;9.28;100.00;98505.59;6084675;19;20018;-71
2024/02/10 04:38:21;;;;;;;8.50;3.95;;;;;;;9.29;100.00;98512.47;6082198;19;20081;-69
2024/02/10 04:40:27;;;;;;;9.05;3.60;;;;;;;9.30;100.00;98501.06;6080765;19;20073;-72
2024/02/10 04:42:32;;;;;;;9.55;3.45;;;;;;;9.26;100.00;98502.22;6084127;19;20027;-69
2024/02/10 04:44:40;;;;;;;5.43;3.40;;;;;;;9.26;100.00;98503.06;6079125;19;20055;-69
2024/02/10 04:46:46;;;;;;;10.52;3.67;;;;;;;9.23;100.00;98509.34;6081705;19;20471;-69
2024/02/10 04:48:53;;;;;;;6.32;3.10;;;;;;;9.24;100.00;98499.72;6082560;19;20038;-68
2024/02/10 04:50:59;;;;;;;8.50;3.42;;;;;;;9.29;100.00;98504.63;6082514;19;20006;-68
2024/02/10 04:53:07;;;;;;;7.35;3.00;;;;;;;9.23;100.00;98509.34;6078875;19;20010;-68
2024/02/10 04:55:13;;;;;;;10.18;3.30;;;;;;;9.20;100.00;98501.72;6082392;19;20002;-70
2024/02/10 04:57:18;;;;;;;5.95;2.95;;;;;;;9.16;100.00;98505.53;6081025;19;20074;-70
2024/02/10 04:59:26;;;;;;;7.72;3.08;;;;;;;9.12;100.00;98509.31;6081246;19;20007;-69
2024/02/10 05:01:34;;;;;;;8.20;3.42;;;;;;;9.16;100.00;98508.16;6078104;19;20030;-69
2024/02/10 05:03:40;;;;;;;5.57;3.47;;;;;;;9.16;100.00;98507.28;6084167;19;20036;-69
2024/02/10 05:05:45;;;;;;;7.70;3.10;;;;;;;9.13;100.00;98512.75;6079688;19;19999;-69
2024/02/10 05:07:51;;;;;;;7.57;3.38;;;;;;;9.16;100.00;98518.63;6080399;19;20340;-69
2024/02/10 05:09:59;;;;;;;9.50;3.45;;;;;;;9.14;100.00;98509.22;6081866;19;20638;-69
2024/02/10 05:12:09;;;;;;;6.75;3.03;;;;;;;9.12;100.00;98517.16;6080041;19;20283;-69
2024/02/10 05:14:14;;;;;;;10.15;3.22;;;;;;;9.10;100.00;98524.28;6080752;19;20113;-69
2024/02/10 05:16:21;;;;;;;7.70;4.05;;;;;;;9.07;100.00;98521.91;6081952;19;20014;-69
2024/02/10 05:18:26;;;;;;;6.32;3.13;;;;;;;9.05;100.00;98530.81;6078572;19;20304;-69
2024/02/10 05:20:31;;;;;;;6.30;3.08;;;;;;;9.05;100.00;98528.19;6084708;19;20374;-69
2024/02/10 05:22:36;;;;;;;7.57;3.30;;;;;;;9.05;100.00;98529.03;6081600;19;20030;-69
2024/02/10 05:24:44;;;;;;;6.15;2.92;;;;;;;9.02;100.00;98529.25;6082263;19;20263;-69
2024/02/10 05:26:50;;;;;;;8.25;3.28;;;;;;;9.06;100.00;98537.72;6081184;19;20010;-69
2024/02/10 05:28:57;;;;;;;10.10;3.60;;;;;;;9.14;100.00;98536.25;6080081;19;20015;-69
2024/02/10 05:30:59;;;;;;;6.60;3.00;;;;;;;9.11;100.00;98544.31;6081811;19;20364;-69
2024/02/10 05:33:05;;;;;;;6.32;3.08;;;;;;;9.14;100.00;98541.47;6080805;19;20284;-69
2024/02/10 05:35:10;;;;;;;6.38;3.33;;;;;;;9.14;100.00;98544.09;6080676;19;20020;-69
2024/02/10 05:37:15;;;;;;;6.75;3.50;;;;;;;9.13;100.00;98541.56;6082831;19;20021;-69
2024/02/10 05:39:20;;;;;;;10.77;4.60;;;;;;;9.10;100.00;98545.25;6076107;19;20014;-69
2024/02/10 05:41:27;;;;;;;6.80;3.28;;;;;;;9.13;100.00;98536.34;6078082;19;20003;-69
2024/02/10 05:43:32;;;;;;;9.18;3.10;;;;;;;9.16;100.00;98543.97;6080923;19;20685;-70
2024/02/10 05:45:40;;;;;;;7.32;3.25;;;;;;;9.15;100.00;98537.06;6079239;19;20010;-69
2024/02/10 05:47:47;;;;;;;10.52;3.38;;;;;;;9.10;100.00;98545.25;6082516;19;20015;-69
2024/02/10 05:49:52;;;;;;;7.45;3.03;;;;;;;9.17;100.00;98549.13;6076011;19;20025;-68
2024/02/10 05:51:59;;;;;;;13.20;3.58;;;;;;;9.14;100.00;98546.72;6081467;19;20067;-69
2024/02/10 05:54:04;;;;;;;8.20;3.30;;;;;;;9.15;100.00;98545.75;6079845;19;20014;-70
2024/02/10 05:56:10;;;;;;;12.63;4.47;;;;;;;9.15;100.00;98547.56;6080456;19;20198;-70
2024/02/10 05:58:15;;;;;;;6.22;3.85;;;;;;;9.14;100.00;98545.88;6077515;19;20427;-70
2024/02/10 06:00:22;;;;;;;7.68;3.20;;;;;;;9.16;100.00;98550.06;6080535;19;20354;-70
2024/02/10 06:02:27;;;;;;;7.57;3.85;;;;;;;9.19;100.00;98549.84;6077326;19;20014;-71
2024/02/10 06:04:33;;;;;;;6.72;2.70;;;;;;;9.17;100.00;98549.13;6080922;19;20011;-71
2024/02/10 06:06:40;;;;;;;8.65;3.17;;;;;;;9.14;100.00;98553.75;6080122;19;20099;-71
2024/02/10 06:08:47;;;;;;;9.07;3.67;;;;;;;9.16;100.00;98562.31;6077962;19;20494;-72
2024/02/10 06:10:53;;;;;;;8.73;3.22;;;;;;;9.14;100.00;98557.19;6078066;19;20324;-72
2024/02/10 06:13:01;;;;;;;7.88;3.67;;;;;;;9.11;100.00;98561.81;6078435;19;20017;-72
2024/02/10 06:15:09;;;;;;;7.10;3.35;;;;;;;9.07;100.00;98566.44;6075471;19;20072;-71
2024/02/10 06:17:15;;;;;;;5.35;2.80;;;;;;;9.13;100.00;98570.41;6081371;19;20010;-71
2024/02/10 06:19:23;;;;;;;9.00;3.40;;;;;;;9.14;100.00;98570.31;6082749;19;20035;-70
2024/02/10 06:21:33;;;;;;;7.57;3.10;;;;;;;9.20;100.00;98571.66;6077865;19;20490;-68
2024/02/10 06:23:39;;;;;;;4.50;2.85;;;;;;;9.19;100.00;98581.28;6081286;19;20007;-71
2024/02/10 06:25:45;;;;;;;6.05;2.97;;;;;;;9.21;100.00;98574.13;6079692;19;20007;-69
2024/02/10 06:27:52;;;;;;;5.82;3.22;;;;;;;9.17;100.00;98579.72;6082614;19;20039;-70
2024/02/10 06:29:54;;;;;;;8.80;2.90;;;;;;;9.15;100.00;98579.00;6078430;19;20047;-68
2024/02/10 06:32:01;;;;;;;8.93;3.28;;;;;;;9.05;100.00;98573.56;6079289;19;20029;-69
2024/02/10 06:34:08;;;;;;;9.65;3.60;;;;;;;9.06;100.00;98574.38;6077611;19;20069;-71
2024/02/10 06:36:16;;;;;;;8.52;3.05;;;;;;;9.04;100.00;98576.31;6077948;19;20023;-71
2024/02/10 06:38:21;;;;;;;6.60;2.85;;;;;;;9.04;100.00;98577.13;6082106;19;20019;-71
2024/02/10 06:40:26;;;;;;;6.80;3.20;;;;;;;9.06;100.00;98579.63;6083896;19;20031;-71
2024/02/10 06:42:35;;;;;;;6.63;2.97;;;;;;;9.04;100.00;98582.38;6085494;19;20619;-72
2024/02/10 06:44:41;;;;;;;8.60;3.42;;;;;;;9.03;100.00;98588.56;6087968;19;20006;-71
2024/02/10 06:46:48;;;;;;;7.88;3.10;;;;;;;9.02;100.00;98594.75;6083017;19;20791;-71
2024/02/10 06:48:53;;;;;;;6.13;3.15;;;;;;;9.05;100.00;98599.75;6085552;19;20010;-71
2024/02/10 06:51:01;;;;;;;10.68;3.58;;;;;;;9.01;100.00;98596.53;6084349;19;20489;-72
2024/02/10 06:53:09;;;;;;;7.35;3.40;;;;;;;9.01;100.00;98603.56;6080628;19;20031;-71
2024/02/10 06:55:12;;;;;;;6.78;3.28;;;;;;;9.00;100.00;98609.72;6087059;19;20014;-72
2024/02/10 06:57:17;;;;;;;7.40;3.00;;;;;;;9.03;100.00;98612.16;6089984;19;20039;-72
2024/02/10 06:59:23;;;;;;;7.90;3.30;;;;;;;9.04;100.00;98610.34;6087625;19;20006;-71
2024/02/10 07:01:28;;;;;;;6.47;3.00;;;;;;;9.07;100.00;98610.13;6089351;19;20566;-71
2024/02/10 07:03:35;;;;;;;8.45;3.88;;;;;;;9.06;100.00;98619.78;6089029;19;20542;-71
2024/02/10 07:05:45;;;;;;;8.80;3.38;;;;;;;9.07;100.00;98616.22;6088573;19;20291;-71
2024/02/10 07:07:52;;;;;;;6.10;2.75;;;;;;;9.06;100.00;98619.78;6087998;19;20009;-72
2024/02/10 07:10:00;;;;;;;4.50;2.70;;;;;;;9.06;100.00;98622.41;6088880;19;20011;-72
2024/02/10 07:12:07;;;;;;;10.70;3.42;;;;;;;9.06;100.00;98617.16;6089412;19;20051;-73
2024/02/10 07:14:10;;;;;;;3.70;3.10;;;;;;;9.07;100.00;98618.00;6086048;19;20042;-69
2024/02/10 07:16:16;;;;;;;8.40;3.63;;;;;;;9.06;100.00;98622.41;6088459;19;20007;-70
2024/02/10 07:18:22;;;;;;;7.70;3.20;;;;;;;9.10;100.00;98617.78;6087876;19;20717;-72
2024/02/10 07:20:31;;;;;;;10.05;3.42;;;;;;;9.06;100.00;98619.78;6088266;19;20692;-70
2024/02/10 07:22:34;;;;;;;7.35;3.67;;;;;;;9.04;100.00;98624.28;6087649;19;20018;-71
2024/02/10 07:24:40;;;;;;;8.63;2.90;;;;;;;9.01;100.00;98624.50;6087854;19;20381;-73
2024/02/10 07:26:50;;;;;;;11.13;3.70;;;;;;;9.06;100.00;98626.78;6088743;19;20006;-72
2024/02/10 07:28:55;;;;;;;7.43;2.85;;;;;;;9.16;100.00;98617.34;6085710;19;20042;-71
2024/02/10 07:31:02;;;;;;;9.73;3.72;;;;;;;9.08;100.00;98617.88;6087815;19;20019;-71
2024/02/10 07:33:12;;;;;;;4.93;2.88;;;;;;;9.08;100.00;98624.91;6086507;19;20011;-69
2024/02/10 07:35:21;;;;;;;9.15;3.40;;;;;;;9.06;100.00;98634.66;6087680;19;20392;-70
2024/02/10 07:37:27;;;;;;;4.95;2.75;;;;;;;8.99;100.00;98629.00;6086733;19;20070;-70
2024/02/10 07:39:32;;;;;;;5.47;3.05;;;;;;;8.98;100.00;98630.81;6087767;19;20007;-71
2024/02/10 07:41:38;;;;;;;7.15;2.92;;;;;;;8.97;100.00;98636.13;6087788;19;20487;-73
2024/02/10 07:43:44;;;;;;;9.15;3.00;;;;;;;8.99;100.00;98635.09;6086959;19;20010;-71
2024/02/10 07:45:52;;;;;;;7.68;3.28;;;;;;;8.96;100.00;98640.53;6086432;19;20015;-71
2024/02/10 07:48:00;;;;;;;5.57;3.22;;;;;;;8.94;100.00;98641.59;6087748;19;20010;-71
2024/02/10 07:50:11;;;;;;;11.25;3.20;;;;;;;8.90;100.00;98648.81;6083764;19;20015;-69
2024/02/10 07:52:18;;;;;;;5.30;2.50;;;;;;;8.88;100.00;98650.72;6081721;19;20082;-73
2024/02/10 07:54:23;;;;;;;8.63;3.30;;;;;;;8.89;100.00;98648.91;6088647;19;20007;-71
2024/02/10 07:56:33;;;;;;;10.77;3.10;;;;;;;8.91;100.00;98654.91;6086789;19;20010;-72
2024/02/10 07:58:39;;;;;;;8.77;3.30;;;;;;;8.93;100.00;98647.78;6088820;19;20020;-72
2024/02/10 08:00:49;;;;;;;6.22;2.83;;;;;;;8.94;100.00;98652.91;6087281;19;20041;-72
2024/02/10 08:02:54;;;;;;;7.32;3.25;;;;;;;8.96;100.00;98652.81;6084307;19;20049;-70
2024/02/10 08:05:01;;;;;;;7.45;3.35;;;;;;;8.94;100.00;98649.44;6085697;19;20003;-70
2024/02/10 08:07:07;;;;;;;7.57;3.05;;;;;;;8.91;100.00;98649.66;6085551;19;20575;-70
2024/02/10 08:09:12;;;;;;;5.65;3.30;;;;;;;8.86;100.00;98651.75;6087546;19;20047;-71
2024/02/10 08:11:18;;;;;;;6.78;3.20;;;;;;;8.85;100.00;98655.31;6086254;19;20015;-71
2024/02/10 08:13:25;;;;;;;7.60;3.15;;;;;;;8.86;100.00;98657.81;6087441;19;20090;-71
2024/02/10 08:15:33;;;;;;;11.88;3.97;;;;;;;8.89;100.00;98656.78;6087201;19;20356;-72
2024/02/10 08:17:49;;;;;;;7.43;3.42;;;;;;;8.93;100.00;98663.50;6085237;19;20526;-71
2024/02/10 08:19:56;;;;;;;7.63;3.40;;;;;;;8.93;100.00;98663.50;6087181;19;20015;-72
2024/02/10 08:22:02;;;;;;;6.65;3.08;;;;;;;9.03;100.00;98661.94;6086911;19;20006;-71
2024/02/10 08:24:10;;;;;;;9.88;3.85;;;;;;;8.98;100.00;98669.25;6084632;19;20039;-73
2024/02/10 08:26:17;;;;;;;9.00;3.70;;;;;;;8.97;100.00;98675.41;6088038;19;20014;-73
2024/02/10 08:28:22;;;;;;;8.45;3.28;;;;;;;8.94;100.00;98681.72;6086480;19;20015;-74
2024/02/10 08:30:29;;;;;;;5.25;3.13;;;;;;;8.96;100.00;98685.06;6086517;19;20074;-73
2024/02/10 08:32:34;;;;;;;9.05;3.53;;;;;;;8.95;100.00;98688.66;6083172;19;20022;-69
2024/02/10 08:34:45;;;;;;;6.15;3.50;;;;;;;8.97;100.00;98693.75;6086403;19;20068;-71
2024/02/10 08:36:53;;;;;;;7.38;3.17;;;;;;;8.97;100.00;98696.38;6084812;19;20008;-70
2024/02/10 08:39:03;;;;;;;8.02;3.58;;;;;;;8.97;100.00;98701.63;6085904;19;20035;-70
2024/02/10 08:41:06;;;;;;;9.30;3.72;;;;;;;8.97;100.00;98701.63;6086208;19;20007;-70
2024/02/10 08:43:13;;;;;;;8.73;3.40;;;;;;;8.95;100.00;98701.75;6087437;19;20010;-70
2024/02/10 08:45:19;;;;;;;8.38;3.65;;;;;;;9.00;100.00;98696.16;6085358;19;20014;-71
2024/02/10 08:47:27;;;;;;;8.73;3.47;;;;;;;9.01;100.00;98697.88;6084123;19;20023;-71
2024/02/10 08:49:32;;;;;;;7.07;3.75;;;;;;;8.99;100.00;98697.13;6086402;19;20015;-70
2024/02/10 08:51:40;;;;;;;7.38;3.42;;;;;;;9.03;100.00;98706.47;6085475;19;20469;-70
2024/02/10 08:53:46;;;;;;;7.28;3.55;;;;;;;9.03;100.00;98693.38;6084184;19;20007;-72
2024/02/10 08:55:51;;;;;;;7.15;3.97;;;;;;;9.05;100.00;98701.09;6086189;19;20043;-72
2024/02/10 08:58:01;;;;;;;8.55;3.63;;;;;;;9.06;100.00;98703.63;6086696;19;20039;-70
2024/02/10 09:00:11;;;;;;;8.52;3.58;;;;;;;9.02;100.00;98715.25;6085036;19;20029;-72
2024/02/10 09:02:16;;;;;;;5.13;3.20;;;;;;;9.08;100.00;98713.97;6084575;19;20115;-71
2024/02/10 09:04:22;;;;;;;9.95;3.53;;;;;;;9.05;100.00;98715.03;6084689;19;20007;-71
2024/02/10 09:06:27;;;;;;;6.05;2.95;;;;;;;9.05;100.00;98720.28;6085484;19;20450;-71
2024/02/10 09:08:37;;;;;;;12.15;3.80;;;;;;;9.11;100.00;98719.00;6082800;19;20010;-70
2024/02/10 09:10:44;;;;;;;7.60;3.60;;;;;;;9.16;100.00;98722.16;6086250;19;20011;-70
2024/02/10 09:12:49;;;;;;;6.35;3.60;;;;;;;9.19;100.00;98725.41;6088402;19;20574;-70
2024/02/10 09:14:54;;;;;;;12.82;4.70;;;;;;;9.27;100.00;98724.91;6086521;19;20097;-71
2024/02/10 09:16:59;;;;;;;12.63;4.20;;;;;;;9.26;100.00;98722.38;6085807;19;20062;-70
2024/02/10 09:19:04;;;;;;;6.47;3.97;;;;;;;9.28;100.00;98731.81;6086957;19;20531;-70
2024/02/10 09:21:07;;;;;;;11.80;4.32;;;;;;;9.30;100.00;98729.91;6084394;19;20058;-70
2024/02/10 09:23:12;;;;;;;6.25;3.20;;;;;;;9.33;100.00;98729.72;6085696;19;20035;-71
2024/02/10 09:25:22;;;;;;;6.85;3.53;;;;;;;9.42;100.00;98736.91;6082368;19;20014;-70
2024/02/10 09:27:27;;;;;;;10.77;4.32;;;;;;;9.47;100.00;98730.53;6083286;19;20479;-70
2024/02/10 09:29:34;;;;;;;6.80;3.38;;;;;;;9.46;100.00;98727.06;6081242;19;20014;-71
2024/02/10 09:31:46;;;;;;;7.47;3.83;;;;;;;9.49;100.00;98731.25;6084287;19;20491;-71
2024/02/10 09:33:48;;;;;;;8.93;3.63;;;;;;;9.48;100.00;98733.06;6085556;19;20014;-71
2024/02/10 09:35:54;;;;;;;10.95;3.65;;;;;;;9.47;100.00;98731.34;6086439;19;20013;-70
2024/02/10 09:37:59;;;;;;;8.30;3.95;;;;;;;9.50;100.00;98732.94;6083564;19;20027;-70
2024/02/10 09:40:05;;;;;;;8.10;3.47;;;;;;;9.50;100.00;98730.31;6085444;19;20019;-72
2024/02/10 09:42:22;;;;;;;9.15;3.90;;;;;;;9.52;100.00;98736.28;6083682;19;20422;-70
2024/02/10 09:44:27;;;;;;;8.77;3.95;;;;;;;9.54;100.00;98740.47;6085480;19;20193;-71
2024/02/10 09:46:35;;;;;;;7.63;3.47;;;;;;;9.56;100.00;98732.53;6085252;19;20158;-70
2024/02/10 09:48:44;;;;;;;7.40;3.95;;;;;;;9.59;100.00;98738.38;6085333;19;20498;-70
2024/02/10 09:50:47;;;;;;;7.80;3.38;;;;;;;9.59;100.00;98730.50;6085187;19;20038;-70
2024/02/10 09:52:52;;;;;;;6.45;3.38;;;;;;;9.63;100.00;98733.75;6081800;19;20396;-70